Monday, December 5, 2016, 11:36 AM EST

KMDT, Harrisburg International Airport

Location: Middletown, PA, United States Lat: 40.2
Local Time: 11:36 AM EST (16:36 GMT) Lon: -76.767
Time Zone: US/Eastern Elev: 308 ft

Show me the last for .
Show Decoded

2016-12-05 10:56 METAR KMDT 051556Z 29003KT 10SM BKN010 07/05 A3001 RMK AO2 SLP164 T00670050 =
2016-12-05 09:56 METAR KMDT 051456Z VRB03KT 10SM OVC010 06/04 A3001 =
2016-12-05 09:26 METAR KMDT 051426Z 29003KT 10SM OVC010 05/04 A3001 RMK AO2 DZE22 P0000 T00500044
                 =
2016-12-05 08:56 METAR KMDT 051356Z 00000KT 10SM -DZ OVC009 05/04 A3000 RMK AO2 SLP163 P0000
                 T00500039 =
2016-12-05 07:56 METAR KMDT 051256Z 00000KT 10SM -DZ FEW005 OVC008 04/04 A2999 RMK AO2 SLP159
                 P0000 T00440039 $ =
2016-12-05 06:56 METAR KMDT 051156Z 00000KT 9SM -DZ OVC008 04/04 A2998 RMK AO2 SLP154 P0001 60016
                 70018 T00390039 10039 20017 53000 $ =
2016-12-05 06:04 METAR KMDT 051104Z 08003KT 6SM -DZ BR OVC009 03/03 A2997 RMK AO2 P0000 T00330033
                 $ =
2016-12-05 05:56 METAR KMDT 051056Z 12003KT 3SM -DZ BR OVC010 03/03 A2996 RMK AO2 SLP149 P0001
                 T00330033 $ =
2016-12-05 05:16 METAR KMDT 051016Z 12004KT 3SM -DZ BR SCT005 OVC010 03/03 A2997 RMK AO2 P0000
                 T00280028 $ =
2016-12-05 04:56 METAR KMDT 050956Z 13005KT 2 1/2SM -DZ BR BKN005 OVC010 03/03 A2998 RMK AO2 CIG
                 003V007 SLP154 P0001 T00280028 $ =
2016-12-05 04:26 METAR KMDT 050926Z 12004KT 2 1/2SM -DZ BR OVC006 03/03 A2998 RMK AO2 P0000
                 T00280028 $ =
2016-12-05 03:56 METAR KMDT 050856Z 12004KT 4SM -DZ BR OVC007 03/03 A2998 RMK AO2 RAE29DZB29PLE09
                 CIG 005V012 SLP154 P0000 60013 T00280028 58007 $ =
2016-12-05 03:10 METAR KMDT 050810Z 11007KT 5SM -RA BR BKN006 OVC017 02/02 A2998 RMK AO2 PLE09
                 P0000 T00170017 $ =
2016-12-05 02:56 METAR KMDT 050756Z 10004KT 7SM -PLRA OVC008 02/02 A3000 =
2016-12-05 02:51 METAR KMDT 050751Z 08005KT 5SM -PLRA BR OVC008 02/02 A3000 RMK AO2 RAE31B45
                 P0005 $ =
2016-12-05 02:32 METAR KMDT 050732Z 12007KT 6SM PL BR SCT008 OVC030 02/02 A3001 RMK AO2 RAE31
                 P0003 T00220017 $ =
2016-12-05 01:56 METAR KMDT 050656Z 14009KT 6SM -PLRA BR BKN027 OVC040 02/02 A3000 RMK AO2 PLB06
                 SLP161 P0008 T00220017 $ =
2016-12-05 01:07 METAR KMDT 050607Z 16005KT 6SM PLRA BR BKN029 OVC040 03/02 A3000 RMK AO2 PLB06
                 P0002 T00330017 $ =
2016-12-05 00:56 METAR KMDT 050556Z 19007KT 7SM -RA OVC042 04/02 A3002 RMK AO2 RAB00 SLP169 P0002
                 60002 T00390017 10056 20039 55022 $ =
2016-12-04 23:56 METAR KMDT 050456Z 16010KT 10SM SCT037 OVC049 05/01 A3002 RMK AO2 RAE54 SLP169
                 P0000 T00500011 400780044 $ =
2016-12-04 22:56 METAR KMDT 050356Z 17009KT 10SM -RA BKN040 OVC060 06/01 A3007 RMK AO2 RAB45
                 SLP187 P0000 T00560006 $ =
2016-12-04 21:56 METAR KMDT 050256Z 13007KT 10SM FEW080 BKN110 BKN250 05/00 A3009 RMK AO2 SLP191
                 T00500000 58020 $ =
2016-12-04 20:56 METAR KMDT 050156Z 14005KT 10SM BKN130 BKN250 05/01 A3011 RMK AO2 SLP198
                 T00500006 $ =
2016-12-04 19:56 METAR KMDT 050056Z 19004KT 10SM SCT150 BKN250 06/01 A3013 RMK AO2 SLP206
                 T00560006 $ =
2016-12-04 18:56 METAR KMDT 042356Z 18003KT 10SM FEW040 BKN250 06/M01 A3015 RMK AO2 SLP212
                 T00561006 10078 20056 56011 $ =
2016-12-04 17:56 METAR KMDT 042256Z 19004KT 10SM FEW040 BKN250 06/M01 A3016 =
2016-12-04 16:56 METAR KMDT 042156Z 20004KT 10SM FEW055 OVC250 06/00 A3016 RMK AO2 SLP215
                 T00610000 $ =
2016-12-04 15:56 METAR KMDT 042056Z 00000KT 10SM FEW055 OVC250 07/M01 A3018 =
2016-12-04 14:56 METAR KMDT 041956Z 00000KT 10SM FEW040 OVC250 07/M02 A3018 =
2016-12-04 13:56 METAR KMDT 041856Z 27005KT 10SM FEW040 OVC250 07/M02 A3020 =
2016-12-04 12:56 METAR KMDT 041756Z 31007KT 10SM FEW041 OVC250 07/M02 A3021 RMK AO2 SLP233
                 T00721022 10072 20050 58017 $ =
2016-12-04 11:56 METAR KMDT 041656Z 29007KT 10SM BKN042 BKN250 07/M02 A3024 RMK AO2 SLP241
                 T00671017 $ =

Support USWX by starting your Amazon purchase here.